sensor_id;sensor_type;location;lat;lon;timestamp;P1;durP1;ratioP1;P2;durP2;ratioP2
74658;SDS011;63186;51.204;6.536;2023-08-24T00:00:40;7.77;;;3.13;;
74658;SDS011;63186;51.204;6.536;2023-08-24T00:03:06;9.23;;;2.88;;
74658;SDS011;63186;51.204;6.536;2023-08-24T00:05:35;5.93;;;2.50;;
74658;SDS011;63186;51.204;6.536;2023-08-24T00:08:02;5.10;;;2.65;;
74658;SDS011;63186;51.204;6.536;2023-08-24T00:10:34;6.35;;;3.03;;
74658;SDS011;63186;51.204;6.536;2023-08-24T00:13:00;8.10;;;3.10;;
74658;SDS011;63186;51.204;6.536;2023-08-24T00:15:27;8.00;;;3.63;;
74658;SDS011;63186;51.204;6.536;2023-08-24T00:17:53;5.53;;;2.38;;
74658;SDS011;63186;51.204;6.536;2023-08-24T00:20:18;6.43;;;2.85;;
74658;SDS011;63186;51.204;6.536;2023-08-24T00:22:45;7.22;;;3.45;;
74658;SDS011;63186;51.204;6.536;2023-08-24T00:25:11;6.75;;;3.25;;
74658;SDS011;63186;51.204;6.536;2023-08-24T00:27:36;7.95;;;2.97;;
74658;SDS011;63186;51.204;6.536;2023-08-24T00:30:05;6.97;;;3.73;;
74658;SDS011;63186;51.204;6.536;2023-08-24T00:32:32;6.63;;;3.42;;
74658;SDS011;63186;51.204;6.536;2023-08-24T00:34:59;6.75;;;3.58;;
74658;SDS011;63186;51.204;6.536;2023-08-24T00:37:24;5.50;;;2.67;;
74658;SDS011;63186;51.204;6.536;2023-08-24T00:39:50;7.03;;;3.45;;
74658;SDS011;63186;51.204;6.536;2023-08-24T00:42:15;8.03;;;3.50;;
74658;SDS011;63186;51.204;6.536;2023-08-24T00:44:41;7.00;;;2.80;;
74658;SDS011;63186;51.204;6.536;2023-08-24T00:47:06;6.90;;;3.17;;
74658;SDS011;63186;51.204;6.536;2023-08-24T00:49:33;8.57;;;3.70;;
74658;SDS011;63186;51.204;6.536;2023-08-24T00:51:59;7.03;;;3.95;;
74658;SDS011;63186;51.204;6.536;2023-08-24T00:54:25;9.30;;;3.65;;
74658;SDS011;63186;51.204;6.536;2023-08-24T00:56:50;10.60;;;3.28;;
74658;SDS011;63186;51.204;6.536;2023-08-24T00:59:16;12.15;;;3.97;;
74658;SDS011;63186;51.204;6.536;2023-08-24T01:01:41;7.35;;;3.72;;
74658;SDS011;63186;51.204;6.536;2023-08-24T01:04:11;9.75;;;4.38;;
74658;SDS011;63186;51.204;6.536;2023-08-24T01:06:37;8.35;;;3.63;;
74658;SDS011;63186;51.204;6.536;2023-08-24T01:09:02;7.03;;;3.60;;
74658;SDS011;63186;51.204;6.536;2023-08-24T01:14:30;8.27;;;3.83;;
74658;SDS011;63186;51.204;6.536;2023-08-24T01:17:07;7.40;;;3.38;;
74658;SDS011;63186;51.204;6.536;2023-08-24T01:19:37;7.80;;;4.10;;
74658;SDS011;63186;51.204;6.536;2023-08-24T01:22:13;7.57;;;3.97;;
74658;SDS011;63186;51.204;6.536;2023-08-24T01:24:52;8.27;;;4.13;;
74658;SDS011;63186;51.204;6.536;2023-08-24T01:27:22;7.13;;;3.67;;
74658;SDS011;63186;51.204;6.536;2023-08-24T01:29:49;8.73;;;4.20;;
74658;SDS011;63186;51.204;6.536;2023-08-24T01:32:15;7.63;;;3.88;;
74658;SDS011;63186;51.204;6.536;2023-08-24T01:34:40;9.48;;;4.30;;
74658;SDS011;63186;51.204;6.536;2023-08-24T01:37:06;7.47;;;3.77;;
74658;SDS011;63186;51.204;6.536;2023-08-24T01:39:38;10.48;;;4.18;;
74658;SDS011;63186;51.204;6.536;2023-08-24T01:42:09;7.50;;;3.63;;
74658;SDS011;63186;51.204;6.536;2023-08-24T01:44:40;7.32;;;3.50;;
74658;SDS011;63186;51.204;6.536;2023-08-24T01:47:07;8.32;;;3.72;;
74658;SDS011;63186;51.204;6.536;2023-08-24T01:49:36;8.65;;;4.88;;
74658;SDS011;63186;51.204;6.536;2023-08-24T01:52:03;10.02;;;4.28;;
74658;SDS011;63186;51.204;6.536;2023-08-24T01:54:29;8.23;;;4.28;;
74658;SDS011;63186;51.204;6.536;2023-08-24T01:56:55;10.05;;;4.60;;
74658;SDS011;63186;51.204;6.536;2023-08-24T01:59:20;9.57;;;4.67;;
74658;SDS011;63186;51.204;6.536;2023-08-24T02:01:45;8.67;;;4.40;;
74658;SDS011;63186;51.204;6.536;2023-08-24T02:04:11;8.60;;;4.53;;
74658;SDS011;63186;51.204;6.536;2023-08-24T02:06:36;9.87;;;4.20;;
74658;SDS011;63186;51.204;6.536;2023-08-24T02:09:01;11.57;;;5.47;;
74658;SDS011;63186;51.204;6.536;2023-08-24T02:11:27;10.35;;;5.10;;
74658;SDS011;63186;51.204;6.536;2023-08-24T02:13:52;10.87;;;5.10;;
74658;SDS011;63186;51.204;6.536;2023-08-24T02:16:18;11.95;;;4.95;;
74658;SDS011;63186;51.204;6.536;2023-08-24T02:18:43;11.90;;;4.50;;
74658;SDS011;63186;51.204;6.536;2023-08-24T02:21:08;10.07;;;4.60;;
74658;SDS011;63186;51.204;6.536;2023-08-24T02:23:37;11.77;;;5.43;;
74658;SDS011;63186;51.204;6.536;2023-08-24T02:26:03;8.45;;;4.80;;
74658;SDS011;63186;51.204;6.536;2023-08-24T02:28:29;8.93;;;4.20;;
74658;SDS011;63186;51.204;6.536;2023-08-24T02:30:54;9.43;;;4.47;;
74658;SDS011;63186;51.204;6.536;2023-08-24T02:33:19;10.67;;;4.07;;
74658;SDS011;63186;51.204;6.536;2023-08-24T02:35:48;9.63;;;4.70;;
74658;SDS011;63186;51.204;6.536;2023-08-24T02:38:13;12.02;;;6.00;;
74658;SDS011;63186;51.204;6.536;2023-08-24T02:40:38;10.20;;;5.13;;
74658;SDS011;63186;51.204;6.536;2023-08-24T02:43:04;9.90;;;4.45;;
74658;SDS011;63186;51.204;6.536;2023-08-24T02:45:29;9.03;;;5.27;;
74658;SDS011;63186;51.204;6.536;2023-08-24T02:47:54;10.97;;;4.40;;
74658;SDS011;63186;51.204;6.536;2023-08-24T02:50:20;8.93;;;4.73;;
74658;SDS011;63186;51.204;6.536;2023-08-24T02:52:45;11.10;;;5.10;;
74658;SDS011;63186;51.204;6.536;2023-08-24T02:55:10;9.38;;;4.65;;
74658;SDS011;63186;51.204;6.536;2023-08-24T02:57:36;10.07;;;5.70;;
74658;SDS011;63186;51.204;6.536;2023-08-24T03:00:02;10.00;;;4.60;;
74658;SDS011;63186;51.204;6.536;2023-08-24T03:02:28;9.15;;;5.57;;
74658;SDS011;63186;51.204;6.536;2023-08-24T03:04:54;10.27;;;5.00;;
74658;SDS011;63186;51.204;6.536;2023-08-24T03:07:20;8.80;;;4.63;;
74658;SDS011;63186;51.204;6.536;2023-08-24T03:09:45;11.25;;;5.60;;
74658;SDS011;63186;51.204;6.536;2023-08-24T03:12:11;11.23;;;5.07;;
74658;SDS011;63186;51.204;6.536;2023-08-24T03:14:37;13.27;;;5.55;;
74658;SDS011;63186;51.204;6.536;2023-08-24T03:17:02;11.67;;;5.57;;
74658;SDS011;63186;51.204;6.536;2023-08-24T03:19:29;13.40;;;5.70;;
74658;SDS011;63186;51.204;6.536;2023-08-24T03:21:54;10.70;;;5.68;;
74658;SDS011;63186;51.204;6.536;2023-08-24T03:24:20;10.57;;;5.80;;
74658;SDS011;63186;51.204;6.536;2023-08-24T03:26:45;9.43;;;5.03;;
74658;SDS011;63186;51.204;6.536;2023-08-24T03:31:38;10.52;;;5.28;;
74658;SDS011;63186;51.204;6.536;2023-08-24T03:34:03;9.30;;;4.73;;
74658;SDS011;63186;51.204;6.536;2023-08-24T03:36:29;9.43;;;5.32;;
74658;SDS011;63186;51.204;6.536;2023-08-24T03:38:54;10.57;;;5.27;;
74658;SDS011;63186;51.204;6.536;2023-08-24T03:41:19;9.37;;;5.13;;
74658;SDS011;63186;51.204;6.536;2023-08-24T03:43:45;11.17;;;5.33;;
74658;SDS011;63186;51.204;6.536;2023-08-24T03:46:10;10.98;;;5.13;;
74658;SDS011;63186;51.204;6.536;2023-08-24T03:48:35;9.37;;;5.07;;
74658;SDS011;63186;51.204;6.536;2023-08-24T03:51:00;12.17;;;6.20;;
74658;SDS011;63186;51.204;6.536;2023-08-24T03:53:26;15.67;;;7.23;;
74658;SDS011;63186;51.204;6.536;2023-08-24T03:55:51;8.97;;;5.73;;
74658;SDS011;63186;51.204;6.536;2023-08-24T03:58:17;11.40;;;5.72;;
74658;SDS011;63186;51.204;6.536;2023-08-24T04:00:43;12.07;;;6.40;;
74658;SDS011;63186;51.204;6.536;2023-08-24T04:03:09;11.18;;;5.60;;
74658;SDS011;63186;51.204;6.536;2023-08-24T04:05:34;10.95;;;5.63;;
74658;SDS011;63186;51.204;6.536;2023-08-24T04:07:59;9.73;;;6.00;;
74658;SDS011;63186;51.204;6.536;2023-08-24T04:10:29;11.95;;;6.82;;
74658;SDS011;63186;51.204;6.536;2023-08-24T04:12:55;11.43;;;6.05;;
74658;SDS011;63186;51.204;6.536;2023-08-24T04:15:20;12.23;;;6.70;;
74658;SDS011;63186;51.204;6.536;2023-08-24T04:17:45;10.67;;;6.60;;
74658;SDS011;63186;51.204;6.536;2023-08-24T04:20:11;11.50;;;7.00;;
74658;SDS011;63186;51.204;6.536;2023-08-24T04:22:37;13.65;;;7.30;;
74658;SDS011;63186;51.204;6.536;2023-08-24T04:25:02;12.73;;;7.10;;
74658;SDS011;63186;51.204;6.536;2023-08-24T04:27:28;13.43;;;6.70;;
74658;SDS011;63186;51.204;6.536;2023-08-24T04:29:53;11.40;;;6.25;;
74658;SDS011;63186;51.204;6.536;2023-08-24T04:32:19;12.23;;;6.93;;
74658;SDS011;63186;51.204;6.536;2023-08-24T04:34:44;12.30;;;6.72;;
74658;SDS011;63186;51.204;6.536;2023-08-24T04:37:09;14.60;;;7.87;;
74658;SDS011;63186;51.204;6.536;2023-08-24T04:39:35;13.77;;;7.50;;
74658;SDS011;63186;51.204;6.536;2023-08-24T04:42:00;13.38;;;7.63;;
74658;SDS011;63186;51.204;6.536;2023-08-24T04:44:27;11.80;;;7.28;;
74658;SDS011;63186;51.204;6.536;2023-08-24T04:46:52;12.18;;;7.03;;
74658;SDS011;63186;51.204;6.536;2023-08-24T04:49:18;11.07;;;6.93;;
74658;SDS011;63186;51.204;6.536;2023-08-24T04:51:43;14.23;;;7.33;;
74658;SDS011;63186;51.204;6.536;2023-08-24T04:54:08;13.27;;;7.53;;
74658;SDS011;63186;51.204;6.536;2023-08-24T04:56:34;13.80;;;7.13;;
74658;SDS011;63186;51.204;6.536;2023-08-24T04:59:00;11.13;;;6.93;;
74658;SDS011;63186;51.204;6.536;2023-08-24T05:01:27;11.65;;;7.40;;
74658;SDS011;63186;51.204;6.536;2023-08-24T05:03:52;12.90;;;7.10;;
74658;SDS011;63186;51.204;6.536;2023-08-24T05:06:18;10.68;;;7.18;;
74658;SDS011;63186;51.204;6.536;2023-08-24T05:08:44;11.30;;;7.07;;
74658;SDS011;63186;51.204;6.536;2023-08-24T05:11:11;12.45;;;7.53;;
74658;SDS011;63186;51.204;6.536;2023-08-24T05:13:42;12.70;;;7.32;;
74658;SDS011;63186;51.204;6.536;2023-08-24T05:16:08;11.50;;;6.53;;
74658;SDS011;63186;51.204;6.536;2023-08-24T05:18:37;11.75;;;6.72;;
74658;SDS011;63186;51.204;6.536;2023-08-24T05:21:02;11.15;;;6.35;;
74658;SDS011;63186;51.204;6.536;2023-08-24T05:23:29;11.85;;;6.22;;
74658;SDS011;63186;51.204;6.536;2023-08-24T05:26:04;13.55;;;6.70;;
74658;SDS011;63186;51.204;6.536;2023-08-24T05:28:30;11.93;;;7.50;;
74658;SDS011;63186;51.204;6.536;2023-08-24T05:30:56;11.45;;;6.63;;
74658;SDS011;63186;51.204;6.536;2023-08-24T05:33:22;10.27;;;6.10;;
74658;SDS011;63186;51.204;6.536;2023-08-24T05:35:48;10.80;;;7.30;;
74658;SDS011;63186;51.204;6.536;2023-08-24T05:38:15;11.65;;;6.22;;
74658;SDS011;63186;51.204;6.536;2023-08-24T05:40:41;10.88;;;6.20;;
74658;SDS011;63186;51.204;6.536;2023-08-24T05:43:08;9.45;;;5.68;;
74658;SDS011;63186;51.204;6.536;2023-08-24T05:45:34;11.50;;;6.18;;
74658;SDS011;63186;51.204;6.536;2023-08-24T05:47:59;11.65;;;6.50;;
74658;SDS011;63186;51.204;6.536;2023-08-24T05:50:25;12.20;;;6.20;;
74658;SDS011;63186;51.204;6.536;2023-08-24T05:52:50;11.70;;;6.33;;
74658;SDS011;63186;51.204;6.536;2023-08-24T05:55:15;10.40;;;5.77;;
74658;SDS011;63186;51.204;6.536;2023-08-24T05:57:41;11.03;;;6.10;;
74658;SDS011;63186;51.204;6.536;2023-08-24T06:00:06;11.60;;;6.03;;
74658;SDS011;63186;51.204;6.536;2023-08-24T06:02:35;11.88;;;7.15;;
74658;SDS011;63186;51.204;6.536;2023-08-24T06:05:00;12.00;;;6.20;;
74658;SDS011;63186;51.204;6.536;2023-08-24T06:07:26;12.15;;;6.57;;
74658;SDS011;63186;51.204;6.536;2023-08-24T06:09:51;10.00;;;6.10;;
74658;SDS011;63186;51.204;6.536;2023-08-24T06:12:16;12.20;;;6.30;;
74658;SDS011;63186;51.204;6.536;2023-08-24T06:14:41;11.73;;;6.53;;
74658;SDS011;63186;51.204;6.536;2023-08-24T06:17:07;15.53;;;6.37;;
74658;SDS011;63186;51.204;6.536;2023-08-24T06:19:32;13.40;;;7.93;;
74658;SDS011;63186;51.204;6.536;2023-08-24T06:21:57;12.93;;;6.50;;
74658;SDS011;63186;51.204;6.536;2023-08-24T06:24:22;13.17;;;5.87;;
74658;SDS011;63186;51.204;6.536;2023-08-24T06:26:48;12.60;;;6.33;;
74658;SDS011;63186;51.204;6.536;2023-08-24T06:29:13;11.40;;;5.90;;
74658;SDS011;63186;51.204;6.536;2023-08-24T06:31:38;11.00;;;6.10;;
74658;SDS011;63186;51.204;6.536;2023-08-24T06:34:03;10.77;;;5.83;;
74658;SDS011;63186;51.204;6.536;2023-08-24T06:36:29;15.07;;;5.77;;
74658;SDS011;63186;51.204;6.536;2023-08-24T06:38:54;10.02;;;5.70;;
74658;SDS011;63186;51.204;6.536;2023-08-24T06:41:20;9.93;;;5.18;;
74658;SDS011;63186;51.204;6.536;2023-08-24T06:43:45;12.55;;;6.50;;
74658;SDS011;63186;51.204;6.536;2023-08-24T06:46:10;9.38;;;5.47;;
74658;SDS011;63186;51.204;6.536;2023-08-24T06:48:36;9.43;;;5.17;;
74658;SDS011;63186;51.204;6.536;2023-08-24T06:51:04;13.57;;;5.15;;
74658;SDS011;63186;51.204;6.536;2023-08-24T06:53:29;10.20;;;5.35;;
74658;SDS011;63186;51.204;6.536;2023-08-24T06:55:55;8.80;;;5.50;;
74658;SDS011;63186;51.204;6.536;2023-08-24T06:58:21;8.90;;;4.90;;
74658;SDS011;63186;51.204;6.536;2023-08-24T07:00:46;9.85;;;4.93;;
74658;SDS011;63186;51.204;6.536;2023-08-24T07:03:12;10.18;;;5.25;;
74658;SDS011;63186;51.204;6.536;2023-08-24T07:05:37;8.77;;;4.63;;
74658;SDS011;63186;51.204;6.536;2023-08-24T07:08:02;8.67;;;4.53;;
74658;SDS011;63186;51.204;6.536;2023-08-24T07:10:28;10.43;;;5.10;;
74658;SDS011;63186;51.204;6.536;2023-08-24T07:12:54;8.85;;;4.88;;
74658;SDS011;63186;51.204;6.536;2023-08-24T07:15:19;9.50;;;4.70;;
74658;SDS011;63186;51.204;6.536;2023-08-24T07:17:44;8.27;;;4.18;;
74658;SDS011;63186;51.204;6.536;2023-08-24T07:20:10;7.05;;;4.15;;
74658;SDS011;63186;51.204;6.536;2023-08-24T07:22:38;8.73;;;4.75;;
74658;SDS011;63186;51.204;6.536;2023-08-24T07:25:04;9.13;;;4.07;;
74658;SDS011;63186;51.204;6.536;2023-08-24T07:27:34;9.13;;;4.38;;
74658;SDS011;63186;51.204;6.536;2023-08-24T07:30:00;9.68;;;3.80;;
74658;SDS011;63186;51.204;6.536;2023-08-24T07:32:28;7.47;;;4.22;;
74658;SDS011;63186;51.204;6.536;2023-08-24T07:34:53;9.68;;;3.95;;
74658;SDS011;63186;51.204;6.536;2023-08-24T07:37:19;8.32;;;4.10;;
74658;SDS011;63186;51.204;6.536;2023-08-24T07:39:44;8.40;;;4.80;;
74658;SDS011;63186;51.204;6.536;2023-08-24T07:42:09;10.37;;;3.77;;
74658;SDS011;63186;51.204;6.536;2023-08-24T07:44:35;10.45;;;3.65;;
74658;SDS011;63186;51.204;6.536;2023-08-24T07:47:01;10.90;;;3.70;;
74658;SDS011;63186;51.204;6.536;2023-08-24T07:49:26;9.55;;;4.43;;
74658;SDS011;63186;51.204;6.536;2023-08-24T07:51:51;8.13;;;3.90;;
74658;SDS011;63186;51.204;6.536;2023-08-24T07:54:16;10.10;;;3.77;;
74658;SDS011;63186;51.204;6.536;2023-08-24T07:56:42;8.33;;;3.53;;
74658;SDS011;63186;51.204;6.536;2023-08-24T07:59:07;9.35;;;4.20;;
74658;SDS011;63186;51.204;6.536;2023-08-24T08:01:32;8.07;;;3.97;;
74658;SDS011;63186;51.204;6.536;2023-08-24T08:03:58;7.80;;;3.97;;
74658;SDS011;63186;51.204;6.536;2023-08-24T08:06:23;8.63;;;4.03;;
74658;SDS011;63186;51.204;6.536;2023-08-24T08:08:49;8.00;;;3.60;;
74658;SDS011;63186;51.204;6.536;2023-08-24T08:11:16;7.45;;;3.30;;
74658;SDS011;63186;51.204;6.536;2023-08-24T08:13:42;9.88;;;3.40;;
74658;SDS011;63186;51.204;6.536;2023-08-24T08:16:07;6.57;;;3.35;;
74658;SDS011;63186;51.204;6.536;2023-08-24T08:18:34;9.20;;;3.65;;
74658;SDS011;63186;51.204;6.536;2023-08-24T08:21:08;10.10;;;3.90;;
74658;SDS011;63186;51.204;6.536;2023-08-24T08:23:34;6.75;;;3.65;;
74658;SDS011;63186;51.204;6.536;2023-08-24T08:25:59;8.73;;;3.83;;
74658;SDS011;63186;51.204;6.536;2023-08-24T08:28:25;9.47;;;3.53;;
74658;SDS011;63186;51.204;6.536;2023-08-24T08:30:50;8.83;;;4.10;;
74658;SDS011;63186;51.204;6.536;2023-08-24T08:33:15;7.33;;;4.03;;
74658;SDS011;63186;51.204;6.536;2023-08-24T08:35:41;7.85;;;4.00;;
74658;SDS011;63186;51.204;6.536;2023-08-24T08:38:06;9.75;;;4.43;;
74658;SDS011;63186;51.204;6.536;2023-08-24T08:40:32;7.65;;;4.40;;
74658;SDS011;63186;51.204;6.536;2023-08-24T08:43:01;7.60;;;4.40;;
74658;SDS011;63186;51.204;6.536;2023-08-24T08:45:27;8.02;;;5.07;;
74658;SDS011;63186;51.204;6.536;2023-08-24T08:47:57;10.23;;;4.15;;
74658;SDS011;63186;51.204;6.536;2023-08-24T08:50:24;10.27;;;4.80;;
74658;SDS011;63186;51.204;6.536;2023-08-24T08:52:50;8.50;;;4.00;;
74658;SDS011;63186;51.204;6.536;2023-08-24T08:55:15;10.57;;;4.17;;
74658;SDS011;63186;51.204;6.536;2023-08-24T08:57:40;8.98;;;3.67;;
74658;SDS011;63186;51.204;6.536;2023-08-24T09:00:08;8.13;;;3.67;;
74658;SDS011;63186;51.204;6.536;2023-08-24T09:02:38;8.52;;;3.35;;
74658;SDS011;63186;51.204;6.536;2023-08-24T09:05:04;9.65;;;4.32;;
74658;SDS011;63186;51.204;6.536;2023-08-24T09:07:29;8.45;;;3.90;;
74658;SDS011;63186;51.204;6.536;2023-08-24T09:09:55;8.05;;;3.83;;
74658;SDS011;63186;51.204;6.536;2023-08-24T09:12:20;7.07;;;3.13;;
74658;SDS011;63186;51.204;6.536;2023-08-24T09:14:45;7.47;;;3.53;;
74658;SDS011;63186;51.204;6.536;2023-08-24T09:17:13;6.97;;;3.67;;
74658;SDS011;63186;51.204;6.536;2023-08-24T09:19:44;9.00;;;3.33;;
74658;SDS011;63186;51.204;6.536;2023-08-24T09:22:10;10.37;;;3.63;;
74658;SDS011;63186;51.204;6.536;2023-08-24T09:24:35;8.03;;;2.97;;
74658;SDS011;63186;51.204;6.536;2023-08-24T09:27:13;6.55;;;3.13;;
74658;SDS011;63186;51.204;6.536;2023-08-24T09:29:43;7.15;;;2.92;;
74658;SDS011;63186;51.204;6.536;2023-08-24T09:32:12;7.60;;;3.13;;
74658;SDS011;63186;51.204;6.536;2023-08-24T09:34:37;7.30;;;3.33;;
74658;SDS011;63186;51.204;6.536;2023-08-24T09:37:02;9.95;;;3.53;;
74658;SDS011;63186;51.204;6.536;2023-08-24T09:39:31;6.63;;;3.22;;
74658;SDS011;63186;51.204;6.536;2023-08-24T09:41:58;6.77;;;2.87;;
74658;SDS011;63186;51.204;6.536;2023-08-24T09:44:25;7.10;;;3.00;;
74658;SDS011;63186;51.204;6.536;2023-08-24T09:46:52;11.00;;;3.20;;
74658;SDS011;63186;51.204;6.536;2023-08-24T09:49:17;7.35;;;3.22;;
74658;SDS011;63186;51.204;6.536;2023-08-24T09:51:44;6.97;;;3.15;;
74658;SDS011;63186;51.204;6.536;2023-08-24T09:54:10;7.25;;;3.13;;
74658;SDS011;63186;51.204;6.536;2023-08-24T09:56:37;7.80;;;3.30;;
74658;SDS011;63186;51.204;6.536;2023-08-24T09:59:16;6.70;;;3.20;;
74658;SDS011;63186;51.204;6.536;2023-08-24T10:01:47;6.03;;;3.03;;
74658;SDS011;63186;51.204;6.536;2023-08-24T10:04:14;6.05;;;2.65;;
74658;SDS011;63186;51.204;6.536;2023-08-24T10:06:42;6.38;;;2.80;;
74658;SDS011;63186;51.204;6.536;2023-08-24T10:09:11;6.97;;;3.13;;
74658;SDS011;63186;51.204;6.536;2023-08-24T10:11:46;6.25;;;3.17;;
74658;SDS011;63186;51.204;6.536;2023-08-24T10:17:06;4.88;;;2.72;;
74658;SDS011;63186;51.204;6.536;2023-08-24T10:19:33;7.10;;;3.15;;
74658;SDS011;63186;51.204;6.536;2023-08-24T10:21:59;5.45;;;2.83;;
74658;SDS011;63186;51.204;6.536;2023-08-24T10:24:26;6.72;;;3.10;;
74658;SDS011;63186;51.204;6.536;2023-08-24T10:26:52;7.35;;;3.15;;
74658;SDS011;63186;51.204;6.536;2023-08-24T10:31:45;7.65;;;3.60;;
74658;SDS011;63186;51.204;6.536;2023-08-24T10:34:10;8.10;;;2.90;;
74658;SDS011;63186;51.204;6.536;2023-08-24T10:36:39;8.23;;;2.95;;
74658;SDS011;63186;51.204;6.536;2023-08-24T10:39:05;6.10;;;2.70;;
74658;SDS011;63186;51.204;6.536;2023-08-24T10:41:50;7.15;;;2.78;;
74658;SDS011;63186;51.204;6.536;2023-08-24T10:49:40;7.28;;;2.80;;
74658;SDS011;63186;51.204;6.536;2023-08-24T10:52:16;6.78;;;2.53;;
74658;SDS011;63186;51.204;6.536;2023-08-24T10:54:43;5.65;;;2.70;;
74658;SDS011;63186;51.204;6.536;2023-08-24T10:57:10;7.28;;;2.90;;
74658;SDS011;63186;51.204;6.536;2023-08-24T10:59:44;6.38;;;3.10;;
74658;SDS011;63186;51.204;6.536;2023-08-24T11:02:10;5.60;;;2.70;;
74658;SDS011;63186;51.204;6.536;2023-08-24T11:07:32;8.07;;;3.05;;
74658;SDS011;63186;51.204;6.536;2023-08-24T11:09:57;5.78;;;2.85;;
74658;SDS011;63186;51.204;6.536;2023-08-24T11:12:22;5.97;;;3.00;;
74658;SDS011;63186;51.204;6.536;2023-08-24T11:14:48;6.90;;;3.17;;
74658;SDS011;63186;51.204;6.536;2023-08-24T11:17:22;4.95;;;2.60;;
74658;SDS011;63186;51.204;6.536;2023-08-24T11:19:52;8.80;;;3.22;;
74658;SDS011;63186;51.204;6.536;2023-08-24T11:22:19;6.78;;;2.60;;
74658;SDS011;63186;51.204;6.536;2023-08-24T11:24:44;8.65;;;3.30;;
74658;SDS011;63186;51.204;6.536;2023-08-24T11:27:10;6.38;;;2.55;;
74658;SDS011;63186;51.204;6.536;2023-08-24T11:29:36;5.65;;;2.90;;
74658;SDS011;63186;51.204;6.536;2023-08-24T11:32:01;7.37;;;3.30;;
74658;SDS011;63186;51.204;6.536;2023-08-24T11:34:27;5.97;;;2.80;;
74658;SDS011;63186;51.204;6.536;2023-08-24T11:36:53;6.43;;;2.63;;
74658;SDS011;63186;51.204;6.536;2023-08-24T11:39:20;6.85;;;2.92;;
74658;SDS011;63186;51.204;6.536;2023-08-24T11:41:56;5.68;;;2.42;;
74658;SDS011;63186;51.204;6.536;2023-08-24T11:44:25;7.95;;;2.50;;
74658;SDS011;63186;51.204;6.536;2023-08-24T11:46:50;6.53;;;2.60;;
74658;SDS011;63186;51.204;6.536;2023-08-24T11:49:16;6.00;;;2.45;;
74658;SDS011;63186;51.204;6.536;2023-08-24T11:51:41;7.80;;;2.67;;
74658;SDS011;63186;51.204;6.536;2023-08-24T11:54:06;7.83;;;3.03;;
74658;SDS011;63186;51.204;6.536;2023-08-24T11:56:33;7.22;;;2.80;;
74658;SDS011;63186;51.204;6.536;2023-08-24T11:59:04;8.00;;;2.50;;
74658;SDS011;63186;51.204;6.536;2023-08-24T12:01:30;6.45;;;3.08;;
74658;SDS011;63186;51.204;6.536;2023-08-24T12:03:57;6.55;;;2.75;;
74658;SDS011;63186;51.204;6.536;2023-08-24T12:06:26;11.33;;;2.60;;
74658;SDS011;63186;51.204;6.536;2023-08-24T12:08:52;6.82;;;2.65;;
74658;SDS011;63186;51.204;6.536;2023-08-24T12:11:18;7.30;;;2.80;;
74658;SDS011;63186;51.204;6.536;2023-08-24T12:13:48;6.88;;;2.60;;
74658;SDS011;63186;51.204;6.536;2023-08-24T12:16:15;7.38;;;2.95;;
74658;SDS011;63186;51.204;6.536;2023-08-24T12:18:54;7.25;;;3.28;;
74658;SDS011;63186;51.204;6.536;2023-08-24T12:23:58;8.35;;;3.30;;
74658;SDS011;63186;51.204;6.536;2023-08-24T12:26:24;8.05;;;3.38;;
74658;SDS011;63186;51.204;6.536;2023-08-24T12:28:51;8.80;;;3.47;;
74658;SDS011;63186;51.204;6.536;2023-08-24T12:31:17;8.27;;;3.70;;
74658;SDS011;63186;51.204;6.536;2023-08-24T12:33:44;7.70;;;3.03;;
74658;SDS011;63186;51.204;6.536;2023-08-24T12:36:11;7.55;;;2.72;;
74658;SDS011;63186;51.204;6.536;2023-08-24T12:38:36;10.63;;;3.28;;
74658;SDS011;63186;51.204;6.536;2023-08-24T12:41:02;10.30;;;3.37;;
74658;SDS011;63186;51.204;6.536;2023-08-24T12:43:28;8.02;;;3.10;;
74658;SDS011;63186;51.204;6.536;2023-08-24T12:45:53;8.63;;;2.87;;
74658;SDS011;63186;51.204;6.536;2023-08-24T12:48:18;6.43;;;2.67;;
74658;SDS011;63186;51.204;6.536;2023-08-24T12:50:44;7.87;;;3.00;;
74658;SDS011;63186;51.204;6.536;2023-08-24T12:53:09;8.60;;;3.20;;
74658;SDS011;63186;51.204;6.536;2023-08-24T12:55:36;8.30;;;3.28;;
74658;SDS011;63186;51.204;6.536;2023-08-24T12:58:03;9.15;;;3.10;;
74658;SDS011;63186;51.204;6.536;2023-08-24T13:00:29;7.75;;;3.00;;
74658;SDS011;63186;51.204;6.536;2023-08-24T13:02:55;7.73;;;3.20;;
74658;SDS011;63186;51.204;6.536;2023-08-24T13:05:20;8.25;;;3.25;;
74658;SDS011;63186;51.204;6.536;2023-08-24T13:07:46;8.93;;;3.27;;
74658;SDS011;63186;51.204;6.536;2023-08-24T13:10:11;10.27;;;3.60;;
74658;SDS011;63186;51.204;6.536;2023-08-24T13:12:36;7.90;;;3.50;;
74658;SDS011;63186;51.204;6.536;2023-08-24T13:15:02;7.35;;;3.60;;
74658;SDS011;63186;51.204;6.536;2023-08-24T13:17:29;7.72;;;3.20;;
74658;SDS011;63186;51.204;6.536;2023-08-24T13:19:55;8.18;;;3.30;;
74658;SDS011;63186;51.204;6.536;2023-08-24T13:22:20;7.67;;;3.37;;
74658;SDS011;63186;51.204;6.536;2023-08-24T13:24:46;9.30;;;3.47;;
74658;SDS011;63186;51.204;6.536;2023-08-24T13:27:11;9.37;;;3.97;;
74658;SDS011;63186;51.204;6.536;2023-08-24T13:29:37;10.32;;;4.05;;
74658;SDS011;63186;51.204;6.536;2023-08-24T13:32:02;9.52;;;4.03;;
74658;SDS011;63186;51.204;6.536;2023-08-24T13:34:28;7.38;;;3.15;;
74658;SDS011;63186;51.204;6.536;2023-08-24T13:36:53;8.63;;;3.40;;
74658;SDS011;63186;51.204;6.536;2023-08-24T13:39:18;9.53;;;4.03;;
74658;SDS011;63186;51.204;6.536;2023-08-24T13:41:44;9.48;;;3.70;;
74658;SDS011;63186;51.204;6.536;2023-08-24T13:44:09;7.67;;;3.33;;
74658;SDS011;63186;51.204;6.536;2023-08-24T13:46:34;7.80;;;3.70;;
74658;SDS011;63186;51.204;6.536;2023-08-24T13:49:00;7.10;;;3.40;;
74658;SDS011;63186;51.204;6.536;2023-08-24T13:51:25;9.23;;;3.70;;
74658;SDS011;63186;51.204;6.536;2023-08-24T13:53:50;9.53;;;3.90;;
74658;SDS011;63186;51.204;6.536;2023-08-24T13:56:15;9.37;;;4.00;;
74658;SDS011;63186;51.204;6.536;2023-08-24T13:58:41;7.00;;;3.17;;
74658;SDS011;63186;51.204;6.536;2023-08-24T14:01:06;8.93;;;4.07;;
74658;SDS011;63186;51.204;6.536;2023-08-24T14:03:31;7.70;;;3.70;;
74658;SDS011;63186;51.204;6.536;2023-08-24T14:05:57;8.45;;;3.60;;
74658;SDS011;63186;51.204;6.536;2023-08-24T14:08:23;7.88;;;3.22;;
74658;SDS011;63186;51.204;6.536;2023-08-24T14:10:48;7.55;;;3.15;;
74658;SDS011;63186;51.204;6.536;2023-08-24T14:13:16;7.63;;;2.80;;
74658;SDS011;63186;51.204;6.536;2023-08-24T14:15:42;7.30;;;2.88;;
74658;SDS011;63186;51.204;6.536;2023-08-24T14:18:07;8.87;;;3.40;;
74658;SDS011;63186;51.204;6.536;2023-08-24T14:20:33;7.03;;;2.60;;
74658;SDS011;63186;51.204;6.536;2023-08-24T14:22:58;7.78;;;3.20;;
74658;SDS011;63186;51.204;6.536;2023-08-24T14:25:24;6.77;;;2.90;;
74658;SDS011;63186;51.204;6.536;2023-08-24T14:27:49;9.00;;;3.00;;
74658;SDS011;63186;51.204;6.536;2023-08-24T14:30:14;8.10;;;3.73;;
74658;SDS011;63186;51.204;6.536;2023-08-24T14:32:39;10.90;;;3.33;;
74658;SDS011;63186;51.204;6.536;2023-08-24T14:35:05;6.20;;;3.17;;
74658;SDS011;63186;51.204;6.536;2023-08-24T14:37:30;6.03;;;2.55;;
74658;SDS011;63186;51.204;6.536;2023-08-24T14:39:58;7.40;;;3.33;;
74658;SDS011;63186;51.204;6.536;2023-08-24T14:42:23;7.72;;;2.95;;
74658;SDS011;63186;51.204;6.536;2023-08-24T14:44:49;7.53;;;2.80;;
74658;SDS011;63186;51.204;6.536;2023-08-24T14:47:14;6.10;;;2.87;;
74658;SDS011;63186;51.204;6.536;2023-08-24T14:49:39;7.55;;;2.78;;
74658;SDS011;63186;51.204;6.536;2023-08-24T14:52:05;7.13;;;2.60;;
74658;SDS011;63186;51.204;6.536;2023-08-24T14:54:30;7.18;;;2.88;;
74658;SDS011;63186;51.204;6.536;2023-08-24T14:56:55;6.93;;;2.70;;
74658;SDS011;63186;51.204;6.536;2023-08-24T14:59:21;6.63;;;2.60;;